Grand Princess — ZCBU5 — position and weather

sailwx.info

Track history (hours):
 
Tides and Currents Weather Stations Pressure Air Temp Water Temp Dewpoint Dewpoint Depression Visibility Wind Speed Wind Dir Waves Ship Positions

Grand Princess

Operator: Princess Cruises

Last reported at 2019-May-20 15:00 UTC. Time now 2019-May-20 16:46 UTC.
Position N 58°48' W 138°30'.

Length 289.5 m; beam 36 m; draft 8.5 m.

Type: Passenger vessel. MMSI: 310327000.

Wind from 320 at 15 knots

Barometer 1009.2 mb
Air temperature 9.5 ° C
Visibility: greater than 10.8 NM
Dewpoint 6.3 ° C
Water temperature 10.0 ° C

Date/timePositionNaut miles runAvg speedWind from/ knotsBaromVisibWave heightAir tempDewpointWater temp
2019-May-20 15:00N 58°48' W 138°30'7021.3 320 / 151009.210.8 9.5 6.310.0
2019-May-20 11:43N 58°10' W 136°38'1422.3
2019-May-20 11:04N 58°18' W 136°16'122.0
2019-May-20 11:00N 58°19' W 136°13'1122.7
2019-May-20 10:30N 58°19' W 135°51'1122.5
2019-May-20 10:00N 58°15' W 135°31'35 5.0
2019-May-20 03:00N 58°12' W 134°24'67 5.6 290 / 151007.710.8 17.0 7.0 7.0
2019-May-19 15:00N 57°06' W 134°06'22021.2 030 / 51007.410.8 9.0 6.9 9.5
2019-May-19 04:37N 53°28' W 133°24'31221.3
2019-May-18 14:00N 48°42' W 130°06'25621.3 110 / 171004.9 5.4 11.0 9.012.0
2019-May-18 02:00N 44°48' W 127°36'27322.8 200 / 231010.9 5.4 13.011.113.5
2019-May-17 14:00N 40°36' W 125°12'12318.9 230 / 131017.710.8 13.010.110.0
2019-May-17 07:27N 38°46' W 123°60'817.2
2019-May-17 06:59N 38°40' W 123°53'816.8
2019-May-17 06:30N 38°33' W 123°46'917.3
2019-May-17 06:00N 38°27' W 123°39'917.2
2019-May-17 05:30N 38°20' W 123°32'917.1
2019-May-17 05:00N 38°14' W 123°25'612.4
2019-May-17 04:30N 38°09' W 123°20'5 9.8
2019-May-17 04:00N 38°05' W 123°16'5 9.7
2019-May-17 03:30N 38°02' W 123°12'5 9.9
2019-May-17 03:00N 37°58' W 123°07'5 9.4
2019-May-17 02:30N 37°56' W 123°02'510.0
2019-May-17 02:00N 37°53' W 122°57'2146.7
2019-May-17 02:00N 37°54' W 122°54'4 8.2 260 / 301014.210.8 13.0 9.113.0
2019-May-17 01:30N 37°51' W 122°51'5 9.7
2019-May-17 01:00N 37°48' W 122°46'510.0
2019-May-17 00:30N 37°44' W 122°42'4 8.4
2019-May-17 00:00N 37°46' W 122°37'816.0
2019-May-16 23:30N 37°49' W 122°28'3 5.5
2019-May-16 22:59N 37°48' W 122°24'0 0.0
2019-May-16 22:29N 37°48' W 122°24'0 0.0
2019-May-16 21:59N 37°48' W 122°24'0 0.0
2019-May-16 21:29N 37°48' W 122°24'0 0.0
2019-May-16 20:59N 37°48' W 122°24'0 0.0
2019-May-16 20:29N 37°48' W 122°24'0 0.0
2019-May-16 19:59N 37°48' W 122°24'0 0.0
2019-May-16 19:29N 37°48' W 122°24'0 0.0
2019-May-16 18:59N 37°48' W 122°24'0 0.0
2019-May-16 18:29N 37°48' W 122°24'0 0.0
2019-May-16 17:59N 37°48' W 122°24'0 0.0
2019-May-16 17:29N 37°48' W 122°24'0 0.0
2019-May-16 16:59N 37°48' W 122°24'0 0.0
2019-May-16 16:29N 37°48' W 122°24'0 0.0
2019-May-16 15:59N 37°48' W 122°24'0 0.0
2019-May-16 15:29N 37°48' W 122°24'0 0.0
2019-May-16 14:59N 37°48' W 122°24'0 0.0
2019-May-16 14:29N 37°48' W 122°24'0 0.3
2019-May-16 14:00N 37°49' W 122°24'1 2.3
2019-May-16 13:30N 37°49' W 122°25'612.1
2019-May-16 13:00N 37°47' W 122°33'713.8
2019-May-16 12:30N 37°45' W 122°41'4 8.3
2019-May-16 12:00N 37°46' W 122°46'612.3
2019-May-16 11:30N 37°49' W 122°52'612.4
2019-May-16 11:00N 37°52' W 122°59'612.2
2019-May-16 10:30N 37°55' W 123°06'612.2
2019-May-16 10:00N 37°59' W 123°12'612.6
2019-May-16 09:30N 38°03' W 123°17'713.3
2019-May-16 09:00N 38°09' W 123°23'1122.0
2019-May-16 08:30N 38°17' W 123°31'1122.6
2019-May-16 08:00N 38°26' W 123°41'1122.1
2019-May-16 07:30N 38°35' W 123°50'34419.0
2019-May-15 13:23N 44°12' W 125°18'8221.9
2019-May-15 09:38N 45°34' W 125°26'322.1
2019-May-15 09:30N 45°37' W 125°26'1121.9
2019-May-15 09:00N 45°48' W 125°27'1121.6
2019-May-15 08:30N 45°58' W 125°28'1121.6
2019-May-15 08:00N 46°09' W 125°30'1121.8
2019-May-15 07:30N 46°20' W 125°31'1121.7
2019-May-15 06:59N 46°31' W 125°32'1021.7
2019-May-15 06:31N 46°42' W 125°33'611.5
2019-May-15 06:00N 46°36' W 125°30'21122.7 200 / 101015.0 5.4 12.0 9.013.0
2019-May-15 05:49N 46°56' W 125°35'7322.0
2019-May-15 02:31N 48°09' W 125°43'122.2
2019-May-15 02:28N 48°10' W 125°43'510.5
2019-May-15 02:00N 48°12' W 125°36'71178.3 240 / 251012.510.8 11.5 8.512.0
2019-May-15 01:59N 48°19' W 125°37'1021.2
2019-May-15 01:30N 48°24' W 125°24'1121.7
2019-May-15 00:59N 48°30' W 125°10'1122.1
2019-May-15 00:30N 48°31' W 124°54'1122.7
2019-May-15 00:00N 48°29' W 124°37'1223.3
2019-May-14 23:30N 48°24' W 124°21'1223.2
2019-May-14 23:00N 48°20' W 124°05'2221.3
2019-May-14 21:59N 48°16' W 123°32'715.5
2019-May-14 21:30N 48°22' W 123°25'4 7.2
2019-May-14 21:00N 48°25' W 123°24'0 0.0
2019-May-14 20:27N 48°25' W 123°24'0 0.0
2019-May-14 19:57N 48°25' W 123°24'0 0.0
2019-May-14 19:27N 48°25' W 123°24'0 0.0
2019-May-14 18:57N 48°25' W 123°24'0 0.0
2019-May-14 18:27N 48°25' W 123°24'0 0.0
2019-May-14 17:57N 48°25' W 123°24'0 0.0
2019-May-14 17:27N 48°25' W 123°24'0 0.0
2019-May-14 16:57N 48°25' W 123°24'0 0.0
2019-May-14 16:27N 48°25' W 123°24'0 0.0
2019-May-14 15:57N 48°25' W 123°24'0 0.0
2019-May-14 15:27N 48°25' W 123°24'0 0.0
2019-May-14 14:57N 48°25' W 123°24'0 0.0
2019-May-14 14:27N 48°25' W 123°24'0 0.0
2019-May-14 13:58N 48°25' W 123°24'1 2.0
2019-May-14 13:31N 48°24' W 123°24'510.1
2019-May-14 12:59N 48°19' W 123°25'612.2
2019-May-14 12:29N 48°14' W 123°30'912.4
2019-May-14 11:45N 48°14' W 123°44'412.7
2019-May-14 11:27N 48°14' W 123°50'613.1
2019-May-14 11:00N 48°14' W 123°58'917.6
2019-May-14 10:30N 48°18' W 124°10'917.4
2019-May-14 10:00N 48°22' W 124°22'612.7
2019-May-14 09:30N 48°25' W 124°31'612.9
2019-May-14 09:00N 48°27' W 124°40'612.9
2019-May-14 08:30N 48°29' W 124°49'713.5
2019-May-14 08:00N 48°29' W 124°59'713.4
2019-May-14 07:30N 48°29' W 125°09'611.7
2019-May-14 07:00N 48°30' W 125°18'713.3
2019-May-14 06:30N 48°34' W 125°26'917.6
2019-May-14 06:00N 48°39' W 125°37'917.6
2019-May-14 05:30N 48°45' W 125°47'917.7
2019-May-14 05:00N 48°50' W 125°58'917.5
2019-May-14 04:30N 48°55' W 126°09'917.4
2019-May-14 04:00N 49°00' W 126°20'917.3
2019-May-14 03:30N 49°05' W 126°31'917.2
2019-May-14 02:58N 49°10' W 126°42'1111.2
2019-May-14 02:00N 49°18' W 126°54'12719.1 170 / 61013.510.8 10.0 6.810.0
2019-May-13 19:22N 50°48' W 129°14'718.3
2019-May-13 19:00N 50°54' W 129°16'1218.8
2019-May-13 18:22N 51°05' W 129°23'618.0
2019-May-13 18:00N 51°11' W 129°26'917.9
2019-May-13 17:30N 51°20' W 129°31'918.0
2019-May-13 17:00N 51°28' W 129°36'918.2
2019-May-13 16:30N 51°37' W 129°41'1118.3
2019-May-13 15:54N 51°47' W 129°47'817.9
2019-May-13 15:28N 51°54' W 129°52'918.1
2019-May-13 14:58N 52°03' W 129°57'817.6
2019-May-13 14:30N 52°11' W 130°01'2 3.3
2019-May-13 14:00N 52°12' W 130°00'8550.3 170 / 61012.710.8 10.0 5.611.0
2019-May-13 13:59N 52°19' W 130°07'5018.3
2019-May-13 11:14N 53°06' W 130°35'518.6
2019-May-13 10:58N 53°11' W 130°38'918.8
2019-May-13 10:30N 53°19' W 130°43'919.0
2019-May-13 10:00N 53°28' W 130°48'919.0
2019-May-13 09:31N 53°37' W 130°52'1019.0
2019-May-13 09:00N 53°47' W 130°55'1019.0
2019-May-13 08:30N 53°56' W 130°58'918.4
2019-May-13 08:00N 54°05' W 131°01'918.0
2019-May-13 07:30N 54°14' W 131°03'917.6
2019-May-13 07:00N 54°22' W 131°08'918.0
2019-May-13 06:30N 54°31' W 131°13'816.8
2019-May-13 06:00N 54°39' W 131°13'917.6
2019-May-13 05:30N 54°47' W 131°08'1118.2
2019-May-13 04:55N 54°58' W 131°08'233 8.3
2019-May-12 00:56N 58°08' W 135°13'920.3
2019-May-12 00:30N 58°12' W 135°28'919.3
2019-May-12 00:00N 58°17' W 135°43'917.4
2019-May-11 23:30N 58°22' W 135°57'510.8
2019-May-11 23:00N 58°27' W 136°01'714.4
2019-May-11 22:30N 58°34' W 136°04'917.9
2019-May-11 22:00N 58°41' W 136°13'918.0
2019-May-11 21:29N 58°48' W 136°26'8 1.6
2019-May-11 16:23N 58°52' W 136°39'717.8
2019-May-11 16:00N 58°49' W 136°28'917.9
2019-May-11 15:30N 58°43' W 136°15'916.6
2019-May-11 15:00N 58°36' W 136°06'1123.5 120 / 61015.010.8 7.0 4.7 7.0
2019-May-11 14:59N 58°36' W 136°04'817.1
2019-May-11 14:30N 58°28' W 136°02'510.6
2019-May-11 14:01N 58°23' W 135°57'510.6
2019-May-11 13:30N 58°19' W 135°51'611.7
2019-May-11 13:00N 58°17' W 135°40'612.2
2019-May-11 12:29N 58°15' W 135°29'57 8.8
2019-May-11 06:00N 59°12' W 135°18'12 4.0 180 / 151011.210.8 11.9 8.0 9.0
2019-May-11 03:00N 59°24' W 135°18'0 0.0 180 / 151010.010.8 14.0 5.6 9.0
2019-May-10 15:00N 59°24' W 135°18'   040 / 81013.910.8 10.0 5.6 7.0
Track history (hours):
 
Tides and Currents Weather Stations Pressure Air Temp Water Temp Dewpoint Dewpoint Depression Visibility Wind Speed Wind Dir Waves Ship Positions

Grand Princess

Operator: Princess Cruises

Last reported at 2019-May-20 15:00 UTC. Time now 2019-May-20 16:46 UTC.
Position N 58°48' W 138°30'.

Length 289.5 m; beam 36 m; draft 8.5 m.

Type: Passenger vessel. MMSI: 310327000.

Wind from 320 at 15 knots

Barometer 1009.2 mb
Air temperature 9.5 ° C
Visibility: greater than 10.8 NM
Dewpoint 6.3 ° C
Water temperature 10.0 ° C

Date/timePositionNaut miles runAvg speedWind from/ knotsBaromVisibWave heightAir tempDewpointWater temp
2019-May-20 15:00N 58°48' W 138°30'7021.3 320 / 151009.210.8 9.5 6.310.0
2019-May-20 11:43N 58°10' W 136°38'1422.3
2019-May-20 11:04N 58°18' W 136°16'122.0
2019-May-20 11:00N 58°19' W 136°13'1122.7
2019-May-20 10:30N 58°19' W 135°51'1122.5
2019-May-20 10:00N 58°15' W 135°31'35 5.0
2019-May-20 03:00N 58°12' W 134°24'67 5.6 290 / 151007.710.8 17.0 7.0 7.0
2019-May-19 15:00N 57°06' W 134°06'22021.2 030 / 51007.410.8 9.0 6.9 9.5
2019-May-19 04:37N 53°28' W 133°24'31221.3
2019-May-18 14:00N 48°42' W 130°06'25621.3 110 / 171004.9 5.4 11.0 9.012.0
2019-May-18 02:00N 44°48' W 127°36'27322.8 200 / 231010.9 5.4 13.011.113.5
2019-May-17 14:00N 40°36' W 125°12'12318.9 230 / 131017.710.8 13.010.110.0
2019-May-17 07:27N 38°46' W 123°60'817.2
2019-May-17 06:59N 38°40' W 123°53'816.8
2019-May-17 06:30N 38°33' W 123°46'917.3
2019-May-17 06:00N 38°27' W 123°39'917.2
2019-May-17 05:30N 38°20' W 123°32'917.1
2019-May-17 05:00N 38°14' W 123°25'612.4
2019-May-17 04:30N 38°09' W 123°20'5 9.8
2019-May-17 04:00N 38°05' W 123°16'5 9.7
2019-May-17 03:30N 38°02' W 123°12'5 9.9
2019-May-17 03:00N 37°58' W 123°07'5 9.4
2019-May-17 02:30N 37°56' W 123°02'510.0
2019-May-17 02:00N 37°53' W 122°57'2146.7
2019-May-17 02:00N 37°54' W 122°54'4 8.2 260 / 301014.210.8 13.0 9.113.0
2019-May-17 01:30N 37°51' W 122°51'5 9.7
2019-May-17 01:00N 37°48' W 122°46'510.0
2019-May-17 00:30N 37°44' W 122°42'4 8.4
2019-May-17 00:00N 37°46' W 122°37'816.0
2019-May-16 23:30N 37°49' W 122°28'3 5.5
2019-May-16 22:59N 37°48' W 122°24'0 0.0
2019-May-16 22:29N 37°48' W 122°24'0 0.0
2019-May-16 21:59N 37°48' W 122°24'0 0.0
2019-May-16 21:29N 37°48' W 122°24'0 0.0
2019-May-16 20:59N 37°48' W 122°24'0 0.0
2019-May-16 20:29N 37°48' W 122°24'0 0.0
2019-May-16 19:59N 37°48' W 122°24'0 0.0
2019-May-16 19:29N 37°48' W 122°24'0 0.0
2019-May-16 18:59N 37°48' W 122°24'0 0.0
2019-May-16 18:29N 37°48' W 122°24'0 0.0
2019-May-16 17:59N 37°48' W 122°24'0 0.0
2019-May-16 17:29N 37°48' W 122°24'0 0.0
2019-May-16 16:59N 37°48' W 122°24'0 0.0
2019-May-16 16:29N 37°48' W 122°24'0 0.0
2019-May-16 15:59N 37°48' W 122°24'0 0.0
2019-May-16 15:29N 37°48' W 122°24'0 0.0
2019-May-16 14:59N 37°48' W 122°24'0 0.0
2019-May-16 14:29N 37°48' W 122°24'0 0.3
2019-May-16 14:00N 37°49' W 122°24'1 2.3
2019-May-16 13:30N 37°49' W 122°25'612.1
2019-May-16 13:00N 37°47' W 122°33'713.8
2019-May-16 12:30N 37°45' W 122°41'4 8.3
2019-May-16 12:00N 37°46' W 122°46'612.3
2019-May-16 11:30N 37°49' W 122°52'612.4
2019-May-16 11:00N 37°52' W 122°59'612.2
2019-May-16 10:30N 37°55' W 123°06'612.2
2019-May-16 10:00N 37°59' W 123°12'612.6
2019-May-16 09:30N 38°03' W 123°17'713.3
2019-May-16 09:00N 38°09' W 123°23'1122.0
2019-May-16 08:30N 38°17' W 123°31'1122.6
2019-May-16 08:00N 38°26' W 123°41'1122.1
2019-May-16 07:30N 38°35' W 123°50'34419.0
2019-May-15 13:23N 44°12' W 125°18'8221.9
2019-May-15 09:38N 45°34' W 125°26'322.1
2019-May-15 09:30N 45°37' W 125°26'1121.9
2019-May-15 09:00N 45°48' W 125°27'1121.6
2019-May-15 08:30N 45°58' W 125°28'1121.6
2019-May-15 08:00N 46°09' W 125°30'1121.8
2019-May-15 07:30N 46°20' W 125°31'1121.7
2019-May-15 06:59N 46°31' W 125°32'1021.7
2019-May-15 06:31N 46°42' W 125°33'611.5
2019-May-15 06:00N 46°36' W 125°30'21122.7 200 / 101015.0 5.4 12.0 9.013.0
2019-May-15 05:49N 46°56' W 125°35'7322.0
2019-May-15 02:31N 48°09' W 125°43'122.2
2019-May-15 02:28N 48°10' W 125°43'510.5
2019-May-15 02:00N 48°12' W 125°36'71178.3 240 / 251012.510.8 11.5 8.512.0
2019-May-15 01:59N 48°19' W 125°37'1021.2
2019-May-15 01:30N 48°24' W 125°24'1121.7
2019-May-15 00:59N 48°30' W 125°10'1122.1
2019-May-15 00:30N 48°31' W 124°54'1122.7
2019-May-15 00:00N 48°29' W 124°37'1223.3
2019-May-14 23:30N 48°24' W 124°21'1223.2
2019-May-14 23:00N 48°20' W 124°05'2221.3
2019-May-14 21:59N 48°16' W 123°32'715.5
2019-May-14 21:30N 48°22' W 123°25'4 7.2
2019-May-14 21:00N 48°25' W 123°24'0 0.0
2019-May-14 20:27N 48°25' W 123°24'0 0.0
2019-May-14 19:57N 48°25' W 123°24'0 0.0
2019-May-14 19:27N 48°25' W 123°24'0 0.0
2019-May-14 18:57N 48°25' W 123°24'0 0.0
2019-May-14 18:27N 48°25' W 123°24'0 0.0
2019-May-14 17:57N 48°25' W 123°24'0 0.0
2019-May-14 17:27N 48°25' W 123°24'0 0.0
2019-May-14 16:57N 48°25' W 123°24'0 0.0
2019-May-14 16:27N 48°25' W 123°24'0 0.0
2019-May-14 15:57N 48°25' W 123°24'0 0.0
2019-May-14 15:27N 48°25' W 123°24'0 0.0
2019-May-14 14:57N 48°25' W 123°24'0 0.0
2019-May-14 14:27N 48°25' W 123°24'0 0.0
2019-May-14 13:58N 48°25' W 123°24'1 2.0
2019-May-14 13:31N 48°24' W 123°24'510.1
2019-May-14 12:59N 48°19' W 123°25'612.2
2019-May-14 12:29N 48°14' W 123°30'912.4
2019-May-14 11:45N 48°14' W 123°44'412.7
2019-May-14 11:27N 48°14' W 123°50'613.1
2019-May-14 11:00N 48°14' W 123°58'917.6
2019-May-14 10:30N 48°18' W 124°10'917.4
2019-May-14 10:00N 48°22' W 124°22'612.7
2019-May-14 09:30N 48°25' W 124°31'612.9
2019-May-14 09:00N 48°27' W 124°40'612.9
2019-May-14 08:30N 48°29' W 124°49'713.5
2019-May-14 08:00N 48°29' W 124°59'713.4
2019-May-14 07:30N 48°29' W 125°09'611.7
2019-May-14 07:00N 48°30' W 125°18'713.3
2019-May-14 06:30N 48°34' W 125°26'917.6
2019-May-14 06:00N 48°39' W 125°37'917.6
2019-May-14 05:30N 48°45' W 125°47'917.7
2019-May-14 05:00N 48°50' W 125°58'917.5
2019-May-14 04:30N 48°55' W 126°09'917.4
2019-May-14 04:00N 49°00' W 126°20'917.3
2019-May-14 03:30N 49°05' W 126°31'917.2
2019-May-14 02:58N 49°10' W 126°42'1111.2
2019-May-14 02:00N 49°18' W 126°54'12719.1 170 / 61013.510.8 10.0 6.810.0
2019-May-13 19:22N 50°48' W 129°14'718.3
2019-May-13 19:00N 50°54' W 129°16'1218.8
2019-May-13 18:22N 51°05' W 129°23'618.0
2019-May-13 18:00N 51°11' W 129°26'917.9
2019-May-13 17:30N 51°20' W 129°31'918.0
2019-May-13 17:00N 51°28' W 129°36'918.2
2019-May-13 16:30N 51°37' W 129°41'1118.3
2019-May-13 15:54N 51°47' W 129°47'817.9
2019-May-13 15:28N 51°54' W 129°52'918.1
2019-May-13 14:58N 52°03' W 129°57'817.6
2019-May-13 14:30N 52°11' W 130°01'2 3.3
2019-May-13 14:00N 52°12' W 130°00'8550.3 170 / 61012.710.8 10.0 5.611.0
2019-May-13 13:59N 52°19' W 130°07'5018.3
2019-May-13 11:14N 53°06' W 130°35'518.6
2019-May-13 10:58N 53°11' W 130°38'918.8
2019-May-13 10:30N 53°19' W 130°43'919.0
2019-May-13 10:00N 53°28' W 130°48'919.0
2019-May-13 09:31N 53°37' W 130°52'1019.0
2019-May-13 09:00N 53°47' W 130°55'1019.0
2019-May-13 08:30N 53°56' W 130°58'918.4
2019-May-13 08:00N 54°05' W 131°01'918.0
2019-May-13 07:30N 54°14' W 131°03'917.6
2019-May-13 07:00N 54°22' W 131°08'918.0
2019-May-13 06:30N 54°31' W 131°13'816.8
2019-May-13 06:00N 54°39' W 131°13'917.6
2019-May-13 05:30N 54°47' W 131°08'1118.2
2019-May-13 04:55N 54°58' W 131°08'233 8.3
2019-May-12 00:56N 58°08' W 135°13'920.3
2019-May-12 00:30N 58°12' W 135°28'919.3
2019-May-12 00:00N 58°17' W 135°43'917.4
2019-May-11 23:30N 58°22' W 135°57'510.8
2019-May-11 23:00N 58°27' W 136°01'714.4
2019-May-11 22:30N 58°34' W 136°04'917.9
2019-May-11 22:00N 58°41' W 136°13'918.0
2019-May-11 21:29N 58°48' W 136°26'8 1.6
2019-May-11 16:23N 58°52' W 136°39'717.8
2019-May-11 16:00N 58°49' W 136°28'917.9
2019-May-11 15:30N 58°43' W 136°15'916.6
2019-May-11 15:00N 58°36' W 136°06'1123.5 120 / 61015.010.8 7.0 4.7 7.0
2019-May-11 14:59N 58°36' W 136°04'817.1
2019-May-11 14:30N 58°28' W 136°02'510.6
2019-May-11 14:01N 58°23' W 135°57'510.6
2019-May-11 13:30N 58°19' W 135°51'611.7
2019-May-11 13:00N 58°17' W 135°40'612.2
2019-May-11 12:29N 58°15' W 135°29'57 8.8
2019-May-11 06:00N 59°12' W 135°18'12 4.0 180 / 151011.210.8 11.9 8.0 9.0
2019-May-11 03:00N 59°24' W 135°18'0 0.0 180 / 151010.010.8 14.0 5.6 9.0
2019-May-10 15:00N 59°24' W 135°18'   040 / 81013.910.8 10.0 5.6 7.0

Dump ship's entire track history